Time;durP1;ratioP1;P1;durP2;ratioP2;P2;SDS_P1;SDS_P2;PMS_P1;PMS_P2;Temp;Humidity;BMP_temperature;BMP_pressure;BME280_temperature;BME280_humidity;BME280_pressure;Samples;Min_cycle;Max_cycle;Signal;HPM_P1;HPM_P2
2023/06/22 00:00:13;;;;;;;4.65;3.72;;;24.40;99.90;;;;;;5037425;28;20357;-67
2023/06/22 00:02:41;;;;;;;4.50;4.10;;;24.40;99.90;;;;;;5032993;28;20212;-66
2023/06/22 00:05:07;;;;;;;4.50;4.07;;;24.40;99.90;;;;;;5022586;28;20261;-67
2023/06/22 00:07:35;;;;;;;5.03;4.53;;;24.40;99.90;;;;;;5037013;28;20201;-67
2023/06/22 00:10:03;;;;;;;5.45;4.13;;;24.40;99.90;;;;;;5033339;28;20178;-67
2023/06/22 00:12:32;;;;;;;5.13;4.53;;;24.30;99.90;;;;;;5033228;28;20185;-67
2023/06/22 00:14:57;;;;;;;5.32;4.65;;;24.30;99.90;;;;;;5026842;28;20173;-67
2023/06/22 00:17:23;;;;;;;6.25;4.55;;;24.30;99.90;;;;;;5035314;28;20208;-67
2023/06/22 00:19:53;;;;;;;4.60;4.10;;;24.30;99.90;;;;;;5033533;28;20197;-67
2023/06/22 00:22:27;;;;;;;5.70;4.43;;;24.30;99.90;;;;;;5028533;28;20441;-67
2023/06/22 00:24:54;;;;;;;4.68;4.28;;;24.30;99.90;;;;;;5048364;28;21023;-67
2023/06/22 00:27:20;;;;;;;4.50;4.10;;;24.30;99.90;;;;;;5036863;28;20200;-67
2023/06/22 00:29:46;;;;;;;5.32;4.82;;;24.20;99.90;;;;;;5035073;28;20653;-67
2023/06/22 00:32:13;;;;;;;4.90;4.40;;;24.20;99.90;;;;;;5051023;28;20189;-67
2023/06/22 00:34:39;;;;;;;5.15;4.65;;;24.20;99.90;;;;;;5046520;28;20181;-68
2023/06/22 00:37:05;;;;;;;4.75;4.28;;;24.20;99.90;;;;;;5053145;28;20270;-66
2023/06/22 00:39:33;;;;;;;4.35;3.95;;;24.20;99.90;;;;;;5045298;28;20193;-66
2023/06/22 00:42:06;;;;;;;4.95;4.45;;;24.20;99.90;;;;;;5036226;28;20161;-67
2023/06/22 00:44:32;;;;;;;8.43;4.15;;;24.20;99.90;;;;;;5054779;28;20227;-68
2023/06/22 00:47:00;;;;;;;5.05;4.43;;;24.10;99.90;;;;;;5040284;28;20190;-67
2023/06/22 00:49:27;;;;;;;5.55;4.57;;;24.10;99.90;;;;;;5044353;28;20213;-67
2023/06/22 00:51:55;;;;;;;5.00;4.30;;;24.10;99.90;;;;;;5044863;28;20198;-67
2023/06/22 00:54:24;;;;;;;4.53;4.13;;;24.10;99.90;;;;;;5032316;28;20418;-66
2023/06/22 00:56:56;;;;;;;4.55;4.15;;;24.10;99.90;;;;;;5042832;28;20193;-67
2023/06/22 00:59:22;;;;;;;4.95;4.45;;;24.10;99.90;;;;;;5028420;28;20194;-65
2023/06/22 01:01:47;;;;;;;5.28;4.63;;;24.00;99.90;;;;;;5035534;28;20192;-66
2023/06/22 01:04:13;;;;;;;4.97;4.47;;;24.00;99.90;;;;;;5035572;28;20185;-67
2023/06/22 01:06:50;;;;;;;4.72;4.32;;;24.00;99.90;;;;;;5035258;28;20170;-67
2023/06/22 01:09:22;;;;;;;5.50;4.18;;;24.00;99.90;;;;;;5039998;28;20188;-67
2023/06/22 01:11:59;;;;;;;5.13;4.63;;;24.00;99.90;;;;;;5039863;28;20215;-67
2023/06/22 01:14:44;;;;;;;4.90;4.50;;;24.00;99.90;;;;;;5037978;28;20173;-67
2023/06/22 01:17:16;;;;;;;4.43;4.03;;;24.00;99.90;;;;;;5056704;28;20196;-67
2023/06/22 01:19:52;;;;;;;4.82;4.18;;;24.00;99.90;;;;;;5025361;28;20185;-66
2023/06/22 01:22:20;;;;;;;4.47;4.07;;;24.00;99.90;;;;;;5038821;28;20169;-67
2023/06/22 01:25:09;;;;;;;4.28;3.88;;;23.90;99.90;;;;;;5040081;28;20286;-67
2023/06/22 01:27:45;;;;;;;4.35;3.95;;;23.90;99.90;;;;;;5040023;28;20177;-67
2023/06/22 01:30:13;;;;;;;4.68;4.28;;;24.00;99.90;;;;;;5045436;28;20338;-67
2023/06/22 01:32:40;;;;;;;4.07;3.75;;;24.00;99.90;;;;;;5056638;28;20181;-67
2023/06/22 01:35:10;;;;;;;5.80;4.22;;;23.90;99.90;;;;;;5039121;28;20196;-67
2023/06/22 01:37:37;;;;;;;4.88;4.38;;;23.90;99.90;;;;;;5039178;28;20300;-67
2023/06/22 01:40:06;;;;;;;4.70;4.28;;;23.90;99.90;;;;;;5039275;28;20195;-67
2023/06/22 01:42:35;;;;;;;5.13;3.88;;;23.90;99.90;;;;;;5023650;28;20182;-70
2023/06/22 01:45:06;;;;;;;4.97;4.47;;;23.90;99.90;;;;;;5053229;28;20184;-66
2023/06/22 01:47:36;;;;;;;4.88;4.38;;;23.90;99.90;;;;;;5036858;28;20335;-66
2023/06/22 01:50:04;;;;;;;5.25;4.20;;;23.90;99.90;;;;;;5044029;28;20209;-65
2023/06/22 01:52:30;;;;;;;5.40;4.53;;;23.90;99.90;;;;;;5039541;28;20185;-66
2023/06/22 01:54:58;;;;;;;5.10;4.57;;;23.90;99.90;;;;;;5021714;28;20240;-67
2023/06/22 01:57:28;;;;;;;6.20;4.90;;;23.90;99.90;;;;;;5028723;28;20213;-67
2023/06/22 02:00:07;;;;;;;5.82;4.22;;;23.90;99.90;;;;;;5035843;28;20240;-67
2023/06/22 02:02:58;;;;;;;4.72;4.32;;;23.80;99.90;;;;;;5031459;28;20372;-67
2023/06/22 02:05:26;;;;;;;5.40;4.43;;;23.80;99.90;;;;;;5045286;28;20255;-67
2023/06/22 02:08:15;;;;;;;4.63;4.22;;;23.80;99.90;;;;;;5039358;28;20201;-68
2023/06/22 02:10:41;;;;;;;4.93;4.43;;;23.80;99.90;;;;;;5055345;28;20191;-67
2023/06/22 02:13:09;;;;;;;4.78;4.28;;;23.70;99.90;;;;;;5048923;28;20231;-67
2023/06/22 02:15:35;;;;;;;4.55;4.13;;;23.70;99.90;;;;;;5039020;28;20224;-61
2023/06/22 02:18:01;;;;;;;4.65;4.25;;;23.70;99.90;;;;;;5055359;28;20177;-66
2023/06/22 02:20:28;;;;;;;4.55;4.03;;;23.70;99.90;;;;;;5037910;28;20260;-65
2023/06/22 02:22:54;;;;;;;5.10;4.60;;;23.70;99.90;;;;;;5037488;28;20582;-66
2023/06/22 02:25:21;;;;;;;4.97;4.57;;;23.70;99.90;;;;;;5055589;28;20209;-66
2023/06/22 02:27:51;;;;;;;6.07;4.18;;;23.70;99.90;;;;;;5039845;28;20182;-66
2023/06/22 02:30:19;;;;;;;4.60;4.20;;;23.70;99.90;;;;;;5038746;28;20176;-66
2023/06/22 02:32:44;;;;;;;4.75;4.35;;;23.70;99.90;;;;;;5038517;28;20168;-66
2023/06/22 02:35:10;;;;;;;5.00;4.50;;;23.70;99.90;;;;;;5044288;28;20197;-65
2023/06/22 02:37:46;;;;;;;5.22;4.47;;;23.70;99.90;;;;;;5038310;28;20229;-66
2023/06/22 02:40:14;;;;;;;4.55;4.15;;;23.60;99.90;;;;;;5044431;28;20208;-65
2023/06/22 02:42:40;;;;;;;5.07;4.57;;;23.60;99.90;;;;;;5044168;28;20195;-66
2023/06/22 02:45:09;;;;;;;4.65;4.22;;;23.60;99.90;;;;;;5035052;28;20185;-66
2023/06/22 02:47:34;;;;;;;4.53;4.13;;;23.60;99.90;;;;;;5035250;28;20265;-66
2023/06/22 02:50:01;;;;;;;4.93;4.45;;;23.60;99.90;;;;;;5035196;28;20316;-66
2023/06/22 02:52:26;;;;;;;4.75;4.35;;;23.60;99.90;;;;;;5035005;28;20221;-66
2023/06/22 02:54:52;;;;;;;4.95;4.50;;;23.60;99.90;;;;;;5035109;28;20198;-65
2023/06/22 02:57:18;;;;;;;6.95;4.75;;;23.60;99.90;;;;;;5037865;28;20212;-66
2023/06/22 02:59:43;;;;;;;5.03;4.53;;;23.50;99.90;;;;;;5038420;28;20177;-65
2023/06/22 03:02:09;;;;;;;4.40;4.00;;;23.60;99.90;;;;;;5038491;28;20264;-66
2023/06/22 03:04:38;;;;;;;4.97;4.10;;;23.50;99.90;;;;;;5038170;28;20169;-66
2023/06/22 03:07:04;;;;;;;4.63;4.22;;;23.50;99.90;;;;;;5038183;28;20205;-67
2023/06/22 03:09:32;;;;;;;4.22;3.83;;;23.50;99.90;;;;;;5037797;28;20180;-67
2023/06/22 03:12:01;;;;;;;5.03;4.10;;;23.50;99.90;;;;;;5037348;28;20181;-67
2023/06/22 03:14:29;;;;;;;6.88;4.40;;;23.50;99.90;;;;;;5037742;28;20201;-66
2023/06/22 03:17:03;;;;;;;8.98;4.13;;;23.50;99.90;;;;;;5038002;28;20213;-65
2023/06/22 03:19:31;;;;;;;5.97;4.32;;;23.50;99.90;;;;;;5025248;28;20180;-63
2023/06/22 03:21:57;;;;;;;4.15;3.75;;;23.50;99.90;;;;;;5037776;28;20228;-66
2023/06/22 03:24:23;;;;;;;4.38;3.53;;;23.40;99.90;;;;;;5070992;28;20188;-66
2023/06/22 03:26:50;;;;;;;4.35;3.88;;;23.40;99.90;;;;;;5059688;28;20196;-66
2023/06/22 03:29:18;;;;;;;3.78;3.42;;;23.40;99.90;;;;;;5037043;28;20181;-66
2023/06/22 03:31:46;;;;;;;4.60;4.10;;;23.30;99.90;;;;;;5054182;28;20250;-66
2023/06/22 03:34:12;;;;;;;6.85;4.50;;;23.30;99.90;;;;;;5039049;28;20196;-65
2023/06/22 03:36:39;;;;;;;5.47;3.92;;;23.30;99.90;;;;;;5036873;28;20295;-65
2023/06/22 03:39:07;;;;;;;4.22;3.83;;;23.30;99.90;;;;;;5017277;28;20170;-66
2023/06/22 03:41:33;;;;;;;6.18;4.35;;;23.20;99.90;;;;;;5017907;28;20206;-66
2023/06/22 03:43:58;;;;;;;4.82;4.32;;;23.20;99.90;;;;;;5018033;28;20173;-66
2023/06/22 03:46:24;;;;;;;6.25;5.03;;;23.20;99.90;;;;;;5051703;28;20177;-66
2023/06/22 03:48:52;;;;;;;4.78;4.30;;;23.20;99.90;;;;;;5037339;28;20189;-66
2023/06/22 03:51:20;;;;;;;5.43;4.28;;;23.20;99.90;;;;;;5029467;28;20181;-65
2023/06/22 03:53:50;;;;;;;4.60;4.20;;;23.10;99.90;;;;;;5030308;28;20216;-66
2023/06/22 03:56:20;;;;;;;4.97;4.47;;;23.10;99.90;;;;;;5049071;28;20201;-64
2023/06/22 03:58:45;;;;;;;4.82;4.32;;;23.10;99.90;;;;;;5037309;28;20189;-67
2023/06/22 04:01:13;;;;;;;7.20;4.60;;;23.10;99.90;;;;;;5049323;28;20193;-66
2023/06/22 04:03:41;;;;;;;5.22;4.38;;;23.00;99.90;;;;;;5061921;28;20169;-66
2023/06/22 04:06:09;;;;;;;19.67;16.90;;;23.00;99.90;;;;;;5036902;28;20184;-64
2023/06/22 04:08:37;;;;;;;11.65;10.50;;;23.00;99.90;;;;;;5053713;28;20173;-67
2023/06/22 04:11:03;;;;;;;8.43;7.63;;;23.00;99.90;;;;;;5036866;28;20204;-66
2023/06/22 04:13:31;;;;;;;9.50;6.43;;;23.00;99.90;;;;;;5036871;28;20227;-66
2023/06/22 04:15:56;;;;;;;6.07;5.40;;;23.00;99.90;;;;;;5053428;28;20192;-66
2023/06/22 04:18:22;;;;;;;5.38;4.90;;;23.10;99.90;;;;;;5045107;28;20304;-66
2023/06/22 04:20:48;;;;;;;5.90;5.30;;;23.10;99.90;;;;;;5032572;28;20197;-67
2023/06/22 04:23:13;;;;;;;5.68;5.10;;;23.20;99.90;;;;;;5036978;28;20192;-64
2023/06/22 04:25:39;;;;;;;5.53;4.70;;;23.20;99.90;;;;;;5036296;28;20197;-66
2023/06/22 04:28:12;;;;;;;5.45;4.95;;;23.20;99.90;;;;;;5037331;28;20201;-66
2023/06/22 04:30:46;;;;;;;9.02;6.65;;;23.20;99.90;;;;;;5037291;28;20192;-66
2023/06/22 04:33:15;;;;;;;6.03;5.43;;;23.20;99.90;;;;;;5048202;28;20210;-67
2023/06/22 04:35:41;;;;;;;5.57;5.00;;;23.20;99.90;;;;;;5036917;28;20251;-65
2023/06/22 04:38:07;;;;;;;6.65;5.20;;;23.30;99.90;;;;;;5036241;28;20189;-67
2023/06/22 04:40:33;;;;;;;6.07;5.35;;;23.20;99.90;;;;;;5051335;28;20201;-67
2023/06/22 04:43:02;;;;;;;5.60;5.00;;;23.30;99.90;;;;;;5050486;28;20264;-65
2023/06/22 04:45:31;;;;;;;5.70;4.80;;;23.30;99.90;;;;;;5039766;28;20182;-67
2023/06/22 04:47:57;;;;;;;6.13;5.13;;;23.30;99.90;;;;;;5047310;28;20272;-63
2023/06/22 04:50:23;;;;;;;5.80;5.00;;;23.30;99.90;;;;;;5030731;28;20221;-67
2023/06/22 04:52:50;;;;;;;5.90;5.30;;;23.30;99.90;;;;;;5040284;28;20285;-67
2023/06/22 04:55:19;;;;;;;7.45;5.38;;;23.30;99.90;;;;;;5040627;28;20185;-67
2023/06/22 04:57:48;;;;;;;5.95;5.18;;;23.30;99.90;;;;;;5042114;28;20172;-64
2023/06/22 05:00:19;;;;;;;4.90;4.50;;;23.30;99.90;;;;;;5039647;28;20194;-69
2023/06/22 05:02:46;;;;;;;5.13;4.65;;;23.30;99.90;;;;;;5040063;28;20196;-66
2023/06/22 05:05:13;;;;;;;7.15;5.13;;;23.30;99.90;;;;;;5040226;28;20323;-67
2023/06/22 05:07:48;;;;;;;5.60;5.10;;;23.40;99.90;;;;;;5040992;28;20207;-64
2023/06/22 05:10:14;;;;;;;6.30;5.45;;;23.40;99.90;;;;;;5033999;28;20280;-67
2023/06/22 05:12:41;;;;;;;5.65;5.10;;;23.40;99.90;;;;;;5057818;28;20205;-65
2023/06/22 05:15:08;;;;;;;5.70;5.05;;;23.40;99.90;;;;;;5047070;28;20188;-66
2023/06/22 05:17:41;;;;;;;5.57;5.07;;;23.50;99.90;;;;;;5056791;28;20228;-68
2023/06/22 05:20:07;;;;;;;5.88;5.18;;;23.50;99.90;;;;;;5056955;28;20175;-70
2023/06/22 05:22:35;;;;;;;6.18;4.90;;;23.50;99.90;;;;;;5039189;28;20178;-70
2023/06/22 05:25:01;;;;;;;5.78;5.10;;;23.50;99.90;;;;;;5050890;28;20196;-70
2023/06/22 05:27:26;;;;;;;6.47;5.32;;;23.50;99.90;;;;;;5056911;28;20280;-71
2023/06/22 05:29:57;;;;;;;7.00;5.38;;;23.50;99.90;;;;;;5056703;28;20177;-70
2023/06/22 05:32:22;;;;;;;6.18;5.47;;;23.50;99.90;;;;;;5039650;28;20201;-67
2023/06/22 05:34:48;;;;;;;6.40;5.72;;;23.50;99.90;;;;;;5040016;28;20230;-70
2023/06/22 05:37:16;;;;;;;5.88;5.28;;;23.50;99.90;;;;;;5039678;28;20255;-70
2023/06/22 05:39:43;;;;;;;5.78;5.18;;;23.60;99.90;;;;;;5036698;28;20178;-68
2023/06/22 05:42:09;;;;;;;5.43;4.93;;;23.60;99.90;;;;;;5039727;28;20231;-69
2023/06/22 05:44:35;;;;;;;6.13;5.15;;;23.70;99.90;;;;;;5056279;28;20189;-69
2023/06/22 05:47:01;;;;;;;5.57;5.05;;;23.70;99.90;;;;;;5056171;28;20180;-69
2023/06/22 05:49:32;;;;;;;5.65;5.05;;;23.80;99.90;;;;;;5056092;28;20197;-70
2023/06/22 05:52:00;;;;;;;6.35;5.18;;;23.90;99.90;;;;;;5056156;28;20173;-70
2023/06/22 05:54:28;;;;;;;6.30;5.28;;;23.90;99.90;;;;;;5053221;28;20197;-69
2023/06/22 05:56:53;;;;;;;7.45;5.20;;;24.00;99.90;;;;;;5031765;28;20197;-68
2023/06/22 05:59:19;;;;;;;7.05;5.78;;;24.10;99.90;;;;;;5020464;28;20174;-69
2023/06/22 06:01:49;;;;;;;6.10;5.50;;;24.10;99.90;;;;;;5054828;28;20228;-68
2023/06/22 06:04:18;;;;;;;6.18;5.57;;;24.20;99.90;;;;;;5057649;28;20186;-68
2023/06/22 06:06:44;;;;;;;6.13;5.53;;;24.30;99.90;;;;;;5039240;28;20212;-69
2023/06/22 06:09:11;;;;;;;6.35;5.43;;;24.40;99.90;;;;;;5038207;28;20197;-67
2023/06/22 06:11:37;;;;;;;6.97;5.40;;;24.40;99.90;;;;;;5019420;28;20192;-67
2023/06/22 06:14:03;;;;;;;6.60;5.25;;;24.50;99.90;;;;;;5035163;28;20280;-67
2023/06/22 06:16:30;;;;;;;5.55;5.05;;;24.60;99.90;;;;;;5038770;28;20219;-67
2023/06/22 06:18:59;;;;;;;7.85;5.35;;;24.60;99.90;;;;;;5038493;28;20172;-67
2023/06/22 06:21:24;;;;;;;6.30;5.70;;;24.70;99.90;;;;;;5038555;28;20200;-67
2023/06/22 06:23:50;;;;;;;5.93;5.40;;;24.70;99.90;;;;;;5038660;28;20173;-68
2023/06/22 06:26:22;;;;;;;6.43;5.82;;;24.70;99.90;;;;;;5038950;28;20233;-67
2023/06/22 06:28:48;;;;;;;7.78;4.90;;;24.70;99.90;;;;;;5038552;28;20295;-63
2023/06/22 06:31:17;;;;;;;6.28;5.53;;;24.80;99.90;;;;;;5038690;28;20256;-66
2023/06/22 06:33:43;;;;;;;5.95;5.25;;;24.80;99.90;;;;;;5038367;28;20182;-66
2023/06/22 06:36:11;;;;;;;5.95;5.35;;;24.80;99.90;;;;;;5054827;28;20216;-67
2023/06/22 06:38:39;;;;;;;5.88;5.15;;;24.80;99.90;;;;;;5038769;28;20173;-67
2023/06/22 06:41:04;;;;;;;5.97;5.32;;;24.80;99.90;;;;;;5038590;28;20247;-67
2023/06/22 06:43:30;;;;;;;7.05;6.00;;;24.90;99.90;;;;;;5038577;28;20169;-65
2023/06/22 06:45:58;;;;;;;5.72;5.22;;;24.90;99.90;;;;;;5038027;28;20191;-66
2023/06/22 06:48:25;;;;;;;6.32;5.45;;;24.90;99.90;;;;;;5038172;28;20197;-66
2023/06/22 06:50:54;;;;;;;6.80;5.45;;;24.90;99.90;;;;;;5038808;28;20181;-67
2023/06/22 06:53:24;;;;;;;7.43;5.80;;;24.90;99.90;;;;;;5038028;28;20185;-67
2023/06/22 06:55:50;;;;;;;6.38;5.78;;;25.00;99.90;;;;;;5037907;28;20212;-67
2023/06/22 06:58:16;;;;;;;6.07;5.53;;;25.00;99.90;;;;;;5055195;28;20248;-67
2023/06/22 07:00:44;;;;;;;6.25;5.60;;;25.00;99.90;;;;;;5038053;28;20180;-68
2023/06/22 07:03:09;;;;;;;5.95;5.40;;;25.00;99.90;;;;;;5037886;28;20234;-67
2023/06/22 07:05:35;;;;;;;6.38;5.78;;;25.10;99.90;;;;;;5037773;28;20252;-67
2023/06/22 07:08:01;;;;;;;6.50;5.85;;;25.10;99.90;;;;;;5037185;28;20176;-67
2023/06/22 07:10:28;;;;;;;6.72;6.07;;;25.10;99.90;;;;;;5037976;28;20169;-68
2023/06/22 07:12:54;;;;;;;6.55;5.95;;;25.20;99.90;;;;;;5038005;28;20165;-67
2023/06/22 07:15:22;;;;;;;6.45;5.85;;;25.30;99.90;;;;;;5037945;28;20208;-69
2023/06/22 07:17:50;;;;;;;5.90;5.30;;;25.30;99.90;;;;;;5037871;28;20201;-68
2023/06/22 07:20:19;;;;;;;6.18;5.55;;;25.40;99.90;;;;;;5037788;28;20260;-67
2023/06/22 07:22:45;;;;;;;5.85;5.35;;;25.40;99.90;;;;;;5038047;28;20193;-67
2023/06/22 07:25:18;;;;;;;6.00;5.47;;;25.50;99.90;;;;;;5037613;28;20170;-66
2023/06/22 07:28:01;;;;;;;6.00;5.40;;;25.60;99.90;;;;;;5055050;28;20227;-67
2023/06/22 07:30:26;;;;;;;5.20;4.68;;;25.70;99.90;;;;;;5037459;28;20424;-67
2023/06/22 07:32:52;;;;;;;7.40;5.90;;;25.70;99.90;;;;;;5037739;28;20173;-68
2023/06/22 07:35:18;;;;;;;5.90;5.30;;;25.80;99.90;;;;;;5037820;28;20201;-67
2023/06/22 07:37:46;;;;;;;5.82;5.22;;;25.90;99.90;;;;;;5037745;28;20204;-67
2023/06/22 07:40:12;;;;;;;5.60;5.10;;;25.90;99.90;;;;;;5037582;28;20181;-67
2023/06/22 07:42:38;;;;;;;6.00;5.40;;;26.00;99.90;;;;;;5026865;28;20205;-68
2023/06/22 07:45:07;;;;;;;6.85;5.60;;;26.10;99.90;;;;;;5018000;28;20178;-68
2023/06/22 07:47:35;;;;;;;5.57;5.03;;;26.10;99.90;;;;;;5017826;28;20246;-66
2023/06/22 07:50:04;;;;;;;6.25;5.00;;;26.20;99.90;;;;;;5035399;28;20220;-67
2023/06/22 07:52:33;;;;;;;5.78;5.28;;;26.30;99.90;;;;;;5037177;28;20191;-68
2023/06/22 07:54:59;;;;;;;5.65;5.15;;;26.40;99.90;;;;;;5036919;28;20188;-68
2023/06/22 07:57:32;;;;;;;5.50;5.00;;;26.40;99.90;;;;;;5036842;28;20193;-67
2023/06/22 08:00:00;;;;;;;6.00;5.35;;;26.50;99.90;;;;;;5037435;28;20173;-67
2023/06/22 08:02:26;;;;;;;5.60;5.10;;;26.50;99.90;;;;;;5037110;28;20193;-67
2023/06/22 08:04:52;;;;;;;5.88;5.38;;;26.50;99.90;;;;;;5054836;28;20182;-68
2023/06/22 08:07:20;;;;;;;5.50;5.00;;;26.50;99.90;;;;;;5043954;28;20170;-68
2023/06/22 08:09:49;;;;;;;5.55;4.97;;;26.50;99.90;;;;;;5039319;28;20201;-69
2023/06/22 08:12:15;;;;;;;5.90;4.72;;;26.60;99.90;;;;;;5038433;28;20203;-68
2023/06/22 08:14:43;;;;;;;5.20;4.70;;;26.70;99.90;;;;;;5037508;28;20174;-68
2023/06/22 08:17:11;;;;;;;5.95;4.97;;;26.60;99.90;;;;;;5037305;28;20232;-68
2023/06/22 08:19:37;;;;;;;5.80;5.30;;;26.70;99.90;;;;;;5041294;28;20173;-68
2023/06/22 08:22:06;;;;;;;6.05;5.45;;;26.70;99.90;;;;;;5040904;28;20180;-67
2023/06/22 08:24:32;;;;;;;5.72;5.20;;;26.80;99.90;;;;;;5041224;28;20252;-67
2023/06/22 08:26:59;;;;;;;5.68;5.18;;;26.80;99.90;;;;;;5047634;28;20185;-66
2023/06/22 08:29:27;;;;;;;6.40;5.18;;;26.90;99.90;;;;;;5023382;28;20210;-67
2023/06/22 08:31:55;;;;;;;6.32;5.60;;;26.90;99.90;;;;;;5021318;28;20181;-67
2023/06/22 08:34:25;;;;;;;6.90;5.38;;;27.00;99.90;;;;;;5040916;28;20172;-68
2023/06/22 08:36:52;;;;;;;5.95;5.35;;;27.00;99.90;;;;;;5040655;28;20220;-68
2023/06/22 08:39:21;;;;;;;6.35;5.72;;;27.10;99.90;;;;;;5040937;28;20189;-68
2023/06/22 08:41:48;;;;;;;6.70;5.53;;;27.20;99.90;;;;;;5038342;28;20246;-67
2023/06/22 08:44:21;;;;;;;6.03;5.43;;;27.30;99.90;;;;;;5021971;28;20449;-68
2023/06/22 08:46:46;;;;;;;6.93;5.47;;;27.40;99.90;;;;;;5041003;28;20264;-68
2023/06/22 08:49:12;;;;;;;5.85;5.25;;;27.50;99.90;;;;;;5040684;28;20220;-67
2023/06/22 08:51:44;;;;;;;5.55;5.05;;;27.60;99.90;;;;;;5040547;28;20173;-66
2023/06/22 08:54:10;;;;;;;5.68;5.18;;;27.60;99.90;;;;;;5040683;28;20203;-67
2023/06/22 08:56:35;;;;;;;5.50;5.00;;;27.70;99.90;;;;;;5040132;28;20244;-67
2023/06/22 08:59:07;;;;;;;5.40;4.88;;;27.80;99.90;;;;;;5040532;28;20176;-67
2023/06/22 09:01:35;;;;;;;5.93;5.40;;;27.90;99.90;;;;;;5040465;28;20184;-67
2023/06/22 09:04:05;;;;;;;5.57;5.03;;;28.00;99.90;;;;;;5040340;28;20197;-67
2023/06/22 09:06:31;;;;;;;5.78;5.15;;;28.00;99.90;;;;;;5040393;28;20274;-68
2023/06/22 09:08:59;;;;;;;5.90;5.30;;;28.10;99.90;;;;;;5040334;28;20196;-67
2023/06/22 09:11:25;;;;;;;5.75;5.25;;;28.20;99.90;;;;;;5040290;28;20177;-69
2023/06/22 09:13:52;;;;;;;5.40;4.90;;;28.20;99.90;;;;;;5040223;28;20191;-66
2023/06/22 09:16:18;;;;;;;5.93;5.32;;;28.30;99.90;;;;;;5057065;28;20247;-67
2023/06/22 09:18:47;;;;;;;6.00;5.40;;;28.40;99.90;;;;;;5053270;28;20182;-67
2023/06/22 09:21:15;;;;;;;6.00;5.40;;;28.50;99.90;;;;;;5020388;28;20181;-67
2023/06/22 09:23:43;;;;;;;7.13;5.53;;;28.60;99.90;;;;;;5021453;28;20194;-66
2023/06/22 09:26:09;;;;;;;5.40;4.95;;;28.70;99.90;;;;;;5056376;28;20177;-67
2023/06/22 09:28:35;;;;;;;5.75;5.25;;;28.80;99.90;;;;;;5039852;28;20184;-67
2023/06/22 09:31:01;;;;;;;5.80;5.20;;;28.90;99.90;;;;;;5039337;28;20201;-67
2023/06/22 09:33:26;;;;;;;5.55;5.05;;;29.00;99.90;;;;;;5040003;28;20199;-67
2023/06/22 09:35:52;;;;;;;5.68;5.13;;;29.10;99.90;;;;;;5032861;28;20280;-68
2023/06/22 09:38:18;;;;;;;5.72;5.20;;;29.20;99.90;;;;;;5020276;28;20178;-68
2023/06/22 09:40:43;;;;;;;5.85;5.35;;;29.30;99.90;;;;;;5022725;28;20434;-68
2023/06/22 09:43:12;;;;;;;6.03;5.47;;;29.50;99.90;;;;;;5026957;28;20177;-67
2023/06/22 09:45:37;;;;;;;5.90;5.30;;;29.60;99.90;;;;;;5019847;28;20246;-68
2023/06/22 09:48:05;;;;;;;5.68;5.18;;;29.70;99.90;;;;;;5019872;28;20232;-69
2023/06/22 09:50:31;;;;;;;5.82;5.32;;;29.70;99.90;;;;;;5019803;28;20217;-68
2023/06/22 09:52:59;;;;;;;9.40;5.57;;;29.70;99.90;;;;;;5026847;28;20277;-68
2023/06/22 09:55:27;;;;;;;5.95;5.00;;;29.70;99.90;;;;;;5039428;28;20169;-68
2023/06/22 09:57:52;;;;;;;5.40;4.90;;;29.70;99.90;;;;;;5039200;28;20217;-68
2023/06/22 10:00:23;;;;;;;5.70;5.20;;;29.60;99.90;;;;;;5039666;28;20172;-68
2023/06/22 10:02:48;;;;;;;5.30;4.80;;;29.50;99.90;;;;;;5039093;28;20420;-67
2023/06/22 10:05:17;;;;;;;5.72;5.18;;;29.40;99.90;;;;;;5039308;28;20193;-68
2023/06/22 10:07:43;;;;;;;5.55;5.13;;;29.30;99.90;;;;;;5039269;28;20216;-68
2023/06/22 10:10:10;;;;;;;5.65;5.15;;;29.20;99.90;;;;;;5039537;28;20264;-67
2023/06/22 10:12:35;;;;;;;6.30;5.70;;;29.10;99.90;;;;;;5039227;28;20235;-68
2023/06/22 10:15:03;;;;;;;6.07;5.47;;;29.00;99.90;;;;;;5039191;28;20177;-67
2023/06/22 10:17:29;;;;;;;5.68;5.13;;;28.90;99.90;;;;;;5038826;28;20255;-67
2023/06/22 10:19:55;;;;;;;6.20;5.50;;;28.80;99.90;;;;;;5038768;28;20169;-67
2023/06/22 10:22:23;;;;;;;6.70;5.72;;;28.70;99.90;;;;;;5038530;28;20204;-67
2023/06/22 10:24:48;;;;;;;6.18;5.57;;;28.60;99.90;;;;;;5038987;28;20193;-66
2023/06/22 10:27:14;;;;;;;5.70;5.20;;;28.40;99.90;;;;;;5038937;28;20192;-67
2023/06/22 10:29:41;;;;;;;5.95;5.38;;;28.40;99.90;;;;;;5039056;28;20180;-66
2023/06/22 10:32:07;;;;;;;5.75;5.25;;;28.30;99.90;;;;;;5038837;28;20228;-67
2023/06/22 10:34:32;;;;;;;5.90;5.40;;;28.20;99.90;;;;;;5038763;28;20196;-67
2023/06/22 10:37:00;;;;;;;6.80;5.15;;;28.10;99.90;;;;;;5038436;28;20395;-67
2023/06/22 10:39:28;;;;;;;7.15;5.93;;;28.10;99.90;;;;;;5056134;28;20161;-67
2023/06/22 10:41:55;;;;;;;6.28;5.53;;;27.90;99.90;;;;;;5054714;28;20172;-67
2023/06/22 10:44:21;;;;;;;6.95;6.15;;;27.80;99.90;;;;;;5045525;28;20272;-66
2023/06/22 10:46:46;;;;;;;6.95;5.85;;;27.70;99.90;;;;;;5038670;28;20201;-65
2023/06/22 10:49:14;;;;;;;9.35;6.72;;;27.50;99.90;;;;;;5038293;28;20288;-67
2023/06/22 10:51:41;;;;;;;7.50;6.55;;;27.30;99.90;;;;;;5038388;28;20280;-67
2023/06/22 10:54:06;;;;;;;6.90;6.20;;;27.00;99.90;;;;;;5038496;28;20170;-67
2023/06/22 10:56:33;;;;;;;8.45;7.63;;;26.70;99.90;;;;;;5038379;28;20201;-70
2023/06/22 10:59:01;;;;;;;8.55;7.65;;;26.40;99.90;;;;;;5038062;28;20193;-68
2023/06/22 11:01:31;;;;;;;9.27;7.63;;;26.00;99.90;;;;;;5038062;28;20200;-69
2023/06/22 11:03:57;;;;;;;8.60;7.75;;;25.60;99.90;;;;;;5038218;28;20169;-70
2023/06/22 11:06:22;;;;;;;8.43;7.60;;;25.30;99.90;;;;;;5038181;28;20197;-71
2023/06/22 11:08:50;;;;;;;8.00;7.28;;;25.00;99.90;;;;;;5037867;28;20185;-70
2023/06/22 11:11:17;;;;;;;7.50;6.80;;;24.80;99.90;;;;;;5037830;28;20227;-73
2023/06/22 11:13:49;;;;;;;7.43;6.65;;;24.60;99.90;;;;;;5125654;27;20541;-71
2023/06/22 11:16:17;;;;;;;7.40;6.65;;;24.40;99.90;;;;;;5125633;28;20301;-70
2023/06/22 11:18:43;;;;;;;7.85;7.05;;;24.30;99.90;;;;;;5125594;28;20286;-70
2023/06/22 11:21:11;;;;;;;8.55;7.65;;;24.20;99.90;;;;;;5091719;28;20214;-69
2023/06/22 11:23:39;;;;;;;9.55;7.70;;;24.10;99.90;;;;;;5091713;28;20305;-69
2023/06/22 11:26:04;;;;;;;8.57;7.68;;;23.90;99.90;;;;;;5091628;28;20187;-69
2023/06/22 11:28:30;;;;;;;9.52;7.93;;;23.90;99.90;;;;;;5091477;28;20247;-69
2023/06/22 11:30:55;;;;;;;12.98;7.82;;;23.90;99.90;;;;;;5091416;28;20228;-69
2023/06/22 11:33:21;;;;;;;9.18;7.80;;;23.90;99.90;;;;;;5090868;28;20200;-69
2023/06/22 11:35:49;;;;;;;9.73;7.97;;;23.90;99.90;;;;;;5125321;28;20180;-68
2023/06/22 11:38:15;;;;;;;8.60;7.80;;;23.90;99.90;;;;;;5091686;28;20187;-69
2023/06/22 11:40:40;;;;;;;9.15;8.25;;;24.00;99.90;;;;;;5091288;28;20168;-68
2023/06/22 11:43:06;;;;;;;8.68;7.88;;;24.20;99.90;;;;;;5091507;28;20179;-68
2023/06/22 11:45:34;;;;;;;9.18;8.35;;;24.30;99.90;;;;;;5091188;28;20200;-67
2023/06/22 11:47:59;;;;;;;10.32;8.52;;;24.50;99.90;;;;;;5090912;28;20175;-68
2023/06/22 11:50:25;;;;;;;9.27;8.35;;;24.80;99.90;;;;;;5091113;28;20172;-68
2023/06/22 11:52:52;;;;;;;9.90;9.00;;;25.00;99.90;;;;;;5090543;28;20203;-67
2023/06/22 11:55:18;;;;;;;9.07;8.18;;;25.20;99.90;;;;;;5125057;28;20168;-67
2023/06/22 11:57:56;;;;;;;8.65;7.85;;;25.30;99.90;;;;;;5125135;28;20174;-67
2023/06/22 12:00:24;;;;;;;9.50;8.13;;;25.40;99.90;;;;;;5124931;28;20164;-67
2023/06/22 12:02:53;;;;;;;8.40;7.60;;;25.50;99.90;;;;;;5091646;28;20248;-67
2023/06/22 12:05:24;;;;;;;8.73;7.93;;;25.50;99.90;;;;;;5124908;28;20182;-68
2023/06/22 12:07:52;;;;;;;9.00;8.10;;;25.50;99.90;;;;;;5124537;28;20207;-67
2023/06/22 12:10:18;;;;;;;8.70;7.90;;;25.50;99.90;;;;;;5105924;28;20184;-67
2023/06/22 12:12:44;;;;;;;8.82;7.97;;;25.50;99.90;;;;;;5107488;28;20230;-68
2023/06/22 12:15:12;;;;;;;8.57;7.78;;;25.50;99.90;;;;;;5090597;28;20256;-68
2023/06/22 12:17:38;;;;;;;8.52;7.72;;;25.50;99.90;;;;;;5090586;28;20164;-67
2023/06/22 12:20:05;;;;;;;8.70;7.88;;;25.50;99.90;;;;;;5090400;28;20211;-67
2023/06/22 12:22:34;;;;;;;10.00;8.20;;;25.50;99.90;;;;;;5091011;28;20183;-69
2023/06/22 12:25:01;;;;;;;9.18;8.30;;;25.40;99.90;;;;;;5077670;28;20176;-69
2023/06/22 12:27:27;;;;;;;9.05;8.25;;;25.40;99.90;;;;;;5076624;28;20507;-67
2023/06/22 12:29:55;;;;;;;14.00;7.47;;;25.40;99.90;;;;;;5076604;28;20199;-68
2023/06/22 12:32:20;;;;;;;8.27;7.57;;;25.40;99.90;;;;;;5110687;28;20215;-68
2023/06/22 12:34:46;;;;;;;7.85;7.15;;;25.50;99.90;;;;;;5110469;28;20169;-68
2023/06/22 12:37:12;;;;;;;6.95;6.32;;;25.70;99.90;;;;;;5110517;28;20173;-69
2023/06/22 12:39:40;;;;;;;6.40;5.80;;;25.90;99.90;;;;;;5110444;28;20915;-69
2023/06/22 12:42:08;;;;;;;6.05;5.55;;;26.10;99.90;;;;;;5109973;28;20243;-69
2023/06/22 12:44:40;;;;;;;5.60;5.10;;;26.30;99.90;;;;;;5090524;28;20178;-67
2023/06/22 12:47:09;;;;;;;4.97;4.47;;;26.60;99.90;;;;;;5089791;28;20208;-68